createdAt,value
2023-01-18T00:01:19.256Z,1.20
2023-01-18T00:03:46.469Z,1.85
2023-01-18T00:06:13.777Z,2.15
2023-01-18T00:08:42.433Z,1.95
2023-01-18T00:11:15.796Z,1.67
2023-01-18T00:13:43.581Z,1.88
2023-01-18T00:16:17.268Z,2.05
2023-01-18T00:18:49.545Z,2.42
2023-01-18T00:21:16.487Z,2.15
2023-01-18T00:23:43.504Z,2.13
2023-01-18T00:26:12.394Z,2.25
2023-01-18T00:28:40.171Z,2.40
2023-01-18T00:31:20.326Z,2.20
2023-01-18T00:33:50.087Z,2.47
2023-01-18T00:36:18.308Z,2.15
2023-01-18T00:38:51.345Z,2.28
2023-01-18T00:41:19.765Z,2.63
2023-01-18T00:43:46.684Z,2.13
2023-01-18T00:46:21.970Z,2.78
2023-01-18T00:48:49.645Z,2.63
2023-01-18T00:51:23.630Z,2.58
2023-01-18T00:53:51.058Z,2.30
2023-01-18T00:56:21.592Z,2.75
2023-01-18T00:58:49.102Z,2.80
2023-01-18T01:01:16.511Z,2.83
2023-01-18T01:04:02.017Z,2.63
2023-01-18T01:06:45.380Z,2.15
2023-01-18T01:09:16.107Z,2.40
2023-01-18T01:12:02.578Z,2.42
2023-01-18T01:14:48.322Z,2.40
2023-01-18T01:17:34.074Z,2.08
2023-01-18T01:20:19.337Z,2.38
2023-01-18T01:23:05.076Z,2.58
2023-01-18T01:25:50.452Z,1.90
2023-01-18T01:28:17.570Z,1.92
2023-01-18T01:30:44.583Z,2.42
2023-01-18T01:33:11.642Z,2.22
2023-01-18T01:35:38.569Z,2.40
2023-01-18T01:38:06.487Z,2.13
2023-01-18T01:40:33.405Z,1.95
2023-01-18T01:43:00.458Z,2.05
2023-01-18T01:45:29.767Z,1.60
2023-01-18T01:47:57.446Z,1.70
2023-01-18T01:50:38.752Z,2.00
2023-01-18T01:53:07.873Z,2.28
2023-01-18T01:55:39.210Z,2.35
2023-01-18T01:58:12.971Z,2.30
2023-01-18T02:00:40.055Z,2.35
2023-01-18T02:03:12.546Z,2.42
2023-01-18T02:06:09.041Z,2.50
2023-01-18T02:08:36.005Z,2.20
2023-01-18T02:11:02.999Z,2.28
2023-01-18T02:13:30.359Z,2.22
2023-01-18T02:16:29.325Z,2.40
2023-01-18T02:19:35.774Z,2.42
2023-01-18T02:22:26.766Z,1.88
2023-01-18T02:25:51.281Z,2.10
2023-01-18T02:28:25.305Z,1.77
2023-01-18T02:31:17.141Z,1.95
2023-01-18T02:34:07.208Z,2.03
2023-01-18T02:36:51.561Z,1.80
2023-01-18T02:39:31.479Z,2.08
2023-01-18T02:42:30.481Z,2.10
2023-01-18T02:45:18.456Z,2.13
2023-01-18T02:47:46.277Z,2.53
2023-01-18T02:50:23.539Z,2.67
2023-01-18T02:52:51.941Z,2.40
2023-01-18T02:55:54.184Z,2.78
2023-01-18T02:58:55.529Z,2.78
2023-01-18T03:01:44.701Z,3.40
2023-01-18T03:04:15.643Z,2.63
2023-01-18T03:06:48.307Z,3.20
2023-01-18T03:09:18.455Z,3.40
2023-01-18T03:11:52.606Z,3.45
2023-01-18T03:14:41.855Z,2.90
2023-01-18T03:17:33.409Z,3.28
2023-01-18T03:20:09.138Z,3.25
2023-01-18T03:23:15.157Z,3.72
2023-01-18T03:25:49.184Z,3.80
2023-01-18T03:28:42.351Z,3.58
2023-01-18T03:31:33.336Z,3.78
2023-01-18T03:34:47.620Z,3.45
2023-01-18T03:37:27.317Z,3.50
2023-01-18T03:40:05.045Z,3.72
2023-01-18T03:42:57.299Z,4.28
2023-01-18T03:45:32.743Z,3.20
2023-01-18T03:48:01.443Z,3.45
2023-01-18T03:51:02.298Z,3.53
2023-01-18T03:53:39.552Z,2.75
2023-01-18T03:56:21.844Z,2.70
2023-01-18T03:58:52.479Z,3.20
2023-01-18T04:01:20.284Z,2.92
2023-01-18T04:03:47.267Z,3.17
2023-01-18T04:06:14.417Z,3.45
2023-01-18T04:08:41.313Z,3.03
2023-01-18T04:11:08.222Z,3.17
2023-01-18T04:13:35.142Z,3.10
2023-01-18T04:16:02.089Z,2.80
2023-01-18T04:18:29.076Z,3.20
2023-01-18T04:20:56.448Z,2.55
2023-01-18T04:23:24.008Z,3.42
2023-01-18T04:25:51.549Z,2.95
2023-01-18T04:28:25.147Z,2.75
2023-01-18T04:30:56.927Z,2.65
2023-01-18T04:33:26.663Z,3.17
2023-01-18T04:35:54.258Z,2.80
2023-01-18T04:38:21.881Z,2.78
2023-01-18T04:40:49.951Z,3.28
2023-01-18T04:43:17.022Z,2.95
2023-01-18T04:45:52.118Z,3.03
2023-01-18T04:48:19.038Z,2.55
2023-01-18T04:50:46.514Z,3.08
2023-01-18T04:53:13.435Z,2.80
2023-01-18T04:55:40.390Z,3.03
2023-01-18T04:58:07.312Z,2.50
2023-01-18T05:00:34.281Z,2.58
2023-01-18T05:03:01.516Z,2.95
2023-01-18T05:05:28.550Z,2.80
2023-01-18T05:07:55.482Z,2.50
2023-01-18T05:10:23.417Z,2.80
2023-01-18T05:12:50.349Z,2.72
2023-01-18T05:15:18.219Z,2.97
2023-01-18T05:17:45.127Z,3.00
2023-01-18T05:20:13.250Z,2.53
2023-01-18T05:22:40.177Z,2.80
2023-01-18T05:25:07.898Z,2.83
2023-01-18T05:27:34.845Z,2.72
2023-01-18T05:30:02.224Z,2.90
2023-01-18T05:32:29.225Z,2.97
2023-01-18T05:34:56.137Z,2.53
2023-01-18T05:37:23.181Z,2.28
2023-01-18T05:39:50.156Z,2.50
2023-01-18T05:42:17.098Z,2.88
2023-01-18T05:44:44.083Z,3.08
2023-01-18T05:47:11.003Z,2.75
2023-01-18T05:49:38.278Z,2.67
2023-01-18T05:52:06.019Z,3.17
2023-01-18T05:54:32.974Z,3.08
2023-01-18T05:57:00.055Z,2.85
2023-01-18T05:59:27.143Z,3.45
2023-01-18T06:01:54.076Z,3.63
2023-01-18T06:04:22.040Z,3.22
2023-01-18T06:06:49.013Z,3.33
2023-01-18T06:09:15.916Z,3.03
2023-01-18T06:11:43.043Z,3.17
2023-01-18T06:14:10.445Z,3.13
2023-01-18T06:16:37.811Z,3.72
2023-01-18T06:19:05.595Z,4.07
2023-01-18T06:21:32.570Z,3.75
2023-01-18T06:23:59.507Z,3.78
2023-01-18T06:26:26.482Z,3.58
2023-01-18T06:28:53.514Z,3.75
2023-01-18T06:31:20.494Z,3.75
2023-01-18T06:33:48.452Z,4.20
2023-01-18T06:36:15.492Z,4.00
2023-01-18T06:38:42.547Z,4.10
2023-01-18T06:41:09.551Z,4.20
2023-01-18T06:43:36.637Z,4.00
2023-01-18T06:46:07.533Z,4.00
2023-01-18T06:48:34.710Z,3.90
2023-01-18T06:51:01.664Z,4.28
2023-01-18T06:53:28.595Z,3.92
2023-01-18T06:56:01.691Z,4.75
2023-01-18T06:58:30.951Z,4.40
2023-01-18T07:01:00.036Z,3.80
2023-01-18T07:03:29.005Z,4.65
2023-01-18T07:06:14.884Z,4.13
2023-01-18T07:08:42.045Z,4.20
2023-01-18T07:11:14.076Z,4.45
2023-01-18T07:13:43.399Z,4.28
2023-01-18T07:16:17.412Z,4.07
2023-01-18T07:18:46.807Z,4.15
2023-01-18T07:21:17.510Z,3.35
2023-01-18T07:23:44.443Z,4.05
2023-01-18T07:26:17.194Z,4.25
2023-01-18T07:28:46.151Z,3.63
2023-01-18T07:31:14.347Z,4.40
2023-01-18T07:33:41.308Z,3.92
2023-01-18T07:36:10.775Z,3.85
2023-01-18T07:38:39.006Z,3.67
2023-01-18T07:41:14.140Z,3.92
2023-01-18T07:43:44.627Z,3.90
2023-01-18T07:46:18.406Z,4.50
2023-01-18T07:48:47.414Z,3.83
2023-01-18T07:51:15.224Z,4.00
2023-01-18T07:53:42.605Z,4.43
2023-01-18T07:56:14.967Z,4.07
2023-01-18T07:58:42.358Z,4.68
2023-01-18T08:01:21.986Z,4.30
2023-01-18T08:03:50.644Z,4.35
2023-01-18T08:06:26.352Z,4.18
2023-01-18T08:08:56.202Z,4.00
2023-01-18T08:11:24.084Z,4.28
2023-01-18T08:13:52.803Z,3.83
2023-01-18T08:16:22.475Z,4.18
2023-01-18T08:18:50.501Z,3.53
2023-01-18T08:21:20.170Z,3.85
2023-01-18T08:23:47.136Z,3.75
2023-01-18T08:26:15.189Z,4.30
2023-01-18T08:28:44.610Z,3.70
2023-01-18T08:31:19.626Z,4.30
2023-01-18T08:33:48.733Z,3.63
2023-01-18T08:36:19.697Z,3.75
2023-01-18T08:38:52.608Z,4.80
2023-01-18T08:41:21.057Z,3.85
2023-01-18T08:43:52.266Z,4.28
2023-01-18T08:46:19.386Z,4.57
2023-01-18T08:48:51.090Z,3.65
2023-01-18T08:51:18.405Z,4.20
2023-01-18T08:53:46.604Z,4.35
2023-01-18T08:56:25.083Z,3.67
2023-01-18T08:59:00.701Z,4.65
2023-01-18T09:01:29.544Z,4.55
2023-01-18T09:03:58.372Z,3.95
2023-01-18T09:06:36.565Z,4.20
2023-01-18T09:09:05.192Z,4.30
2023-01-18T09:11:33.700Z,4.27
2023-01-18T09:14:02.145Z,4.22
2023-01-18T09:16:31.004Z,4.10
2023-01-18T09:19:06.341Z,3.70
2023-01-18T09:21:34.091Z,3.80
2023-01-18T09:24:24.646Z,4.03
2023-01-18T09:26:52.188Z,3.70
2023-01-18T09:29:20.243Z,3.95
2023-01-18T09:31:49.121Z,4.25
2023-01-18T09:34:19.923Z,4.47
2023-01-18T09:36:51.483Z,4.25
2023-01-18T09:42:00.229Z,3.50
2023-01-18T09:44:40.403Z,3.92
2023-01-18T09:47:34.086Z,4.07
2023-01-18T09:50:18.478Z,4.00
2023-01-18T09:53:33.426Z,3.72
2023-01-18T09:56:13.093Z,4.40
2023-01-18T09:58:54.504Z,3.92
2023-01-18T10:01:30.230Z,3.75
2023-01-18T10:04:17.116Z,3.70
2023-01-18T10:06:52.427Z,4.40
2023-01-18T10:09:35.146Z,4.68
2023-01-18T10:12:34.872Z,4.32
2023-01-18T10:15:17.296Z,3.47
2023-01-18T10:17:46.669Z,3.42
2023-01-18T10:20:28.500Z,2.60
2023-01-18T10:23:06.371Z,2.58
2023-01-18T10:26:01.407Z,2.30
2023-01-18T10:29:15.635Z,2.75
2023-01-18T10:32:08.949Z,2.53
2023-01-18T10:34:42.826Z,2.08
2023-01-18T10:37:26.100Z,2.45
2023-01-18T10:40:09.150Z,2.63
2023-01-18T10:42:49.171Z,2.13
2023-01-18T10:45:35.423Z,2.42
2023-01-18T10:48:23.378Z,2.33
2023-01-18T10:50:53.949Z,2.45
2023-01-18T10:53:23.768Z,2.30
2023-01-18T10:56:09.531Z,2.53
2023-01-18T10:58:51.675Z,2.13
2023-01-18T11:01:28.634Z,2.05
2023-01-18T11:04:06.602Z,2.42
2023-01-18T11:06:55.838Z,2.05
2023-01-18T11:09:41.562Z,2.15
2023-01-18T11:12:36.384Z,2.88
2023-01-18T11:15:15.565Z,2.80
2023-01-18T11:17:56.067Z,2.40
2023-01-18T11:20:37.596Z,2.35
2023-01-18T11:23:29.678Z,2.60
2023-01-18T11:26:21.236Z,2.33
2023-01-18T11:29:05.114Z,2.28
2023-01-18T11:31:54.287Z,2.20
2023-01-18T11:34:37.119Z,2.30
2023-01-18T11:37:24.469Z,1.92
2023-01-18T11:39:51.373Z,2.55
2023-01-18T11:42:34.933Z,2.30
2023-01-18T11:45:25.298Z,2.10
2023-01-18T11:48:02.390Z,2.83
2023-01-18T11:50:43.373Z,2.38
2023-01-18T11:53:41.497Z,2.80
2023-01-18T11:56:21.661Z,2.22
2023-01-18T11:58:49.582Z,3.15
2023-01-18T12:01:48.253Z,2.78
2023-01-18T12:05:11.951Z,2.97
2023-01-18T12:08:00.873Z,2.33
2023-01-18T12:10:54.438Z,2.17
2023-01-18T12:14:00.976Z,2.25
2023-01-18T12:17:14.210Z,2.25
2023-01-18T12:20:19.024Z,2.20
2023-01-18T12:23:29.517Z,2.38
2023-01-18T12:27:01.851Z,2.22
2023-01-18T12:30:09.236Z,2.70
2023-01-18T12:33:43.372Z,2.10
2023-01-18T12:36:37.283Z,1.70
2023-01-18T12:39:20.711Z,2.00
2023-01-18T12:42:00.422Z,2.47
2023-01-18T12:44:43.607Z,1.92
2023-01-18T12:47:47.662Z,2.35
2023-01-18T12:50:24.725Z,2.35
2023-01-18T12:53:01.246Z,2.38
2023-01-18T12:55:32.329Z,2.30
2023-01-18T13:00:41.151Z,2.00
2023-01-18T13:03:16.299Z,2.08
2023-01-18T13:05:57.223Z,1.95
2023-01-18T13:08:44.903Z,2.17
2023-01-18T13:11:25.693Z,2.15
2023-01-18T13:14:26.300Z,1.90
2023-01-18T13:17:09.099Z,2.08
2023-01-18T13:19:54.669Z,2.03
2023-01-18T13:22:44.242Z,2.58
2023-01-18T13:25:24.944Z,1.70
2023-01-18T13:28:12.157Z,1.83
2023-01-18T13:31:01.956Z,1.80
2023-01-18T13:33:45.574Z,2.13
2023-01-18T13:36:19.769Z,2.10
2023-01-18T13:38:55.847Z,2.10
2023-01-18T13:41:29.335Z,2.30
2023-01-18T13:44:05.189Z,2.40
2023-01-18T13:46:36.449Z,2.75
2023-01-18T13:49:38.000Z,2.60
2023-01-18T13:52:31.749Z,2.60
2023-01-18T13:55:02.633Z,2.70
2023-01-18T13:57:33.986Z,3.10
2023-01-18T14:00:02.311Z,3.20
2023-01-18T14:05:26.564Z,2.83
2023-01-18T14:07:58.867Z,3.08
2023-01-18T14:10:46.569Z,3.28
2023-01-18T14:13:32.192Z,3.35
2023-01-18T14:16:00.161Z,3.40
2023-01-18T14:18:29.909Z,3.53
2023-01-18T14:21:27.212Z,3.65
2023-01-18T14:24:29.760Z,3.15
2023-01-18T14:26:59.549Z,3.90
2023-01-18T14:29:46.587Z,3.60
2023-01-18T14:32:22.986Z,4.45
2023-01-18T14:35:25.740Z,3.65
2023-01-18T14:38:16.929Z,3.95
2023-01-18T14:40:51.352Z,3.65
2023-01-18T14:43:41.551Z,3.70
2023-01-18T14:46:21.273Z,4.13
2023-01-18T14:48:58.200Z,3.25
2023-01-18T14:51:28.052Z,3.85
2023-01-18T14:53:59.474Z,3.60
2023-01-18T14:56:34.184Z,3.13
2023-01-18T14:59:17.741Z,2.88
2023-01-18T15:02:03.328Z,2.90
2023-01-18T15:04:38.784Z,2.97
2023-01-18T15:07:13.560Z,3.10
2023-01-18T15:09:42.207Z,2.92
2023-01-18T15:12:19.706Z,2.67
2023-01-18T15:14:49.627Z,2.53
2023-01-18T15:17:22.449Z,2.53
2023-01-18T15:20:15.115Z,2.72
2023-01-18T15:22:42.884Z,3.28
2023-01-18T15:25:32.564Z,2.67
2023-01-18T15:28:14.930Z,2.55
2023-01-18T15:30:54.279Z,2.97
2023-01-18T15:33:24.394Z,2.50
2023-01-18T15:36:00.523Z,2.63
2023-01-18T15:38:28.052Z,2.47
2023-01-18T15:41:11.781Z,2.80
2023-01-18T15:43:44.098Z,3.22
2023-01-18T15:46:17.043Z,3.15
2023-01-18T15:48:54.560Z,3.13
2023-01-18T15:51:41.828Z,3.58
2023-01-18T15:54:16.514Z,3.58
2023-01-18T15:56:44.422Z,3.88
2023-01-18T15:59:11.882Z,3.70
2023-01-18T16:01:38.952Z,3.55
2023-01-18T16:04:23.038Z,3.63
2023-01-18T16:06:50.049Z,3.35
2023-01-18T16:09:22.807Z,2.72
2023-01-18T16:11:57.521Z,3.08
2023-01-18T16:14:38.219Z,2.63
2023-01-18T16:17:19.759Z,3.53
2023-01-18T16:19:56.861Z,3.03
2023-01-18T16:22:27.489Z,2.97
2023-01-18T16:25:18.132Z,2.53
2023-01-18T16:27:54.898Z,2.90
2023-01-18T16:30:34.807Z,3.17
2023-01-18T16:33:18.395Z,3.38
2023-01-18T16:35:45.873Z,3.22
2023-01-18T16:38:15.882Z,3.10
2023-01-18T16:40:45.960Z,3.50
2023-01-18T16:43:18.996Z,3.33
2023-01-18T16:45:49.411Z,3.40
2023-01-18T16:48:20.120Z,3.67
2023-01-18T16:50:48.157Z,3.35
2023-01-18T16:53:15.283Z,3.55
2023-01-18T16:55:44.923Z,4.68
2023-01-18T16:58:15.858Z,5.40
2023-01-18T17:01:03.146Z,5.70
2023-01-18T17:03:30.139Z,5.80
2023-01-18T17:05:57.207Z,5.60
2023-01-18T17:08:24.143Z,5.60
2023-01-18T17:10:52.349Z,6.13
2023-01-18T17:13:19.284Z,5.78
2023-01-18T17:15:46.469Z,5.97
2023-01-18T17:18:25.344Z,5.45
2023-01-18T17:20:54.374Z,5.22
2023-01-18T17:23:21.804Z,5.40
2023-01-18T17:25:48.956Z,5.88
2023-01-18T17:28:18.668Z,5.10
2023-01-18T17:30:49.549Z,5.07
2023-01-18T17:33:23.824Z,4.38
2023-01-18T17:35:53.667Z,4.28
2023-01-18T17:38:27.849Z,4.93
2023-01-18T17:40:56.663Z,4.70
2023-01-18T17:43:33.388Z,4.75
2023-01-18T17:46:06.263Z,4.13
2023-01-18T17:48:33.646Z,4.25
2023-01-18T17:51:00.566Z,5.63
2023-01-18T17:53:27.898Z,5.72
2023-01-18T17:55:55.088Z,5.18
2023-01-18T17:58:22.249Z,5.10
2023-01-18T18:00:49.365Z,5.05
2023-01-18T18:03:16.628Z,5.10
2023-01-18T18:05:43.696Z,4.65
2023-01-18T18:08:10.815Z,4.85
2023-01-18T18:10:37.815Z,4.10
2023-01-18T18:13:04.925Z,4.45
2023-01-18T18:15:31.879Z,4.78
2023-01-18T18:17:58.820Z,4.40
2023-01-18T18:20:25.791Z,5.07
2023-01-18T18:22:52.705Z,4.53
2023-01-18T18:25:19.626Z,4.55
2023-01-18T18:27:47.438Z,4.13
2023-01-18T18:30:16.659Z,4.60
2023-01-18T18:32:43.768Z,4.70
2023-01-18T18:35:26.783Z,4.88
2023-01-18T18:37:55.445Z,4.68
2023-01-18T18:40:23.057Z,4.60
2023-01-18T18:43:01.131Z,3.72
2023-01-18T18:45:30.978Z,4.28
2023-01-18T18:47:58.274Z,3.70
2023-01-18T18:50:25.292Z,3.88
2023-01-18T18:52:52.727Z,3.75
2023-01-18T18:55:19.719Z,3.65
2023-01-18T18:57:46.897Z,4.15
2023-01-18T19:00:14.481Z,3.88
2023-01-18T19:02:41.581Z,3.97
2023-01-18T19:05:10.487Z,4.50
2023-01-18T19:07:38.122Z,3.70
2023-01-18T19:10:06.852Z,3.33
2023-01-18T19:12:33.858Z,3.47
2023-01-18T19:15:01.038Z,4.53
2023-01-18T19:17:31.070Z,4.20
2023-01-18T19:19:59.018Z,4.03
2023-01-18T19:22:26.272Z,4.45
2023-01-18T19:24:53.218Z,4.47
2023-01-18T19:27:21.253Z,4.13
2023-01-18T19:29:48.245Z,4.28
2023-01-18T19:32:15.466Z,3.97
2023-01-18T19:34:42.395Z,4.30
2023-01-18T19:37:09.335Z,4.10
2023-01-18T19:39:36.318Z,3.92
2023-01-18T19:42:03.457Z,3.40
2023-01-18T19:44:30.504Z,3.88
2023-01-18T19:47:00.466Z,4.18
2023-01-18T19:49:27.413Z,4.28
2023-01-18T19:51:56.817Z,4.57
2023-01-18T19:54:23.798Z,4.55
2023-01-18T19:56:51.347Z,4.22
2023-01-18T19:59:18.339Z,4.45
2023-01-18T20:01:45.559Z,4.72
2023-01-18T20:04:13.472Z,4.68
2023-01-18T20:06:43.127Z,5.32
2023-01-18T20:09:19.639Z,4.75
2023-01-18T20:11:48.737Z,4.35
2023-01-18T20:14:16.043Z,4.68
2023-01-18T20:16:45.713Z,5.50
2023-01-18T20:19:14.787Z,5.47
2023-01-18T20:21:41.739Z,5.30
2023-01-18T20:24:09.423Z,8.32
2023-01-18T20:26:39.088Z,11.18
2023-01-18T20:29:08.072Z,33.28
2023-01-18T20:31:37.416Z,33.53
2023-01-18T20:34:05.723Z,23.27
2023-01-18T20:36:37.375Z,10.15
2023-01-18T20:39:05.584Z,5.30
2023-01-18T20:41:32.554Z,5.28
2023-01-18T20:43:59.747Z,5.05
2023-01-18T20:46:26.851Z,4.85
2023-01-18T20:48:53.840Z,5.05
2023-01-18T20:51:20.819Z,4.88
2023-01-18T20:53:47.757Z,5.30
2023-01-18T20:56:28.409Z,4.97
2023-01-18T20:58:58.042Z,4.80
2023-01-18T21:01:31.398Z,4.93
2023-01-18T21:03:59.940Z,5.35
2023-01-18T21:06:27.685Z,5.25
2023-01-18T21:08:56.270Z,5.00
2023-01-18T21:11:26.285Z,5.07
2023-01-18T21:13:55.520Z,5.07
2023-01-18T21:16:23.662Z,4.45
2023-01-18T21:18:52.620Z,4.70
2023-01-18T21:21:20.927Z,5.50
2023-01-18T21:23:47.869Z,5.28
2023-01-18T21:26:15.037Z,5.38
2023-01-18T21:28:42.024Z,5.50
2023-01-18T21:31:09.450Z,5.35
2023-01-18T21:33:37.170Z,5.18
2023-01-18T21:36:11.831Z,4.70
2023-01-18T21:38:38.797Z,4.85
2023-01-18T21:41:24.615Z,4.93
2023-01-18T21:44:11.644Z,4.88
2023-01-18T21:46:47.852Z,4.93
2023-01-18T21:49:52.215Z,4.43
2023-01-18T21:52:39.355Z,4.85
2023-01-18T21:55:06.410Z,4.80
2023-01-18T21:57:33.413Z,5.40
2023-01-18T22:00:00.348Z,5.10
2023-01-18T22:02:27.396Z,5.03
2023-01-18T22:05:00.323Z,4.88
2023-01-18T22:07:29.954Z,5.32
2023-01-18T22:10:06.091Z,5.65
2023-01-18T22:12:35.799Z,5.50
2023-01-18T22:15:04.794Z,5.50
2023-01-18T22:17:31.959Z,5.45
2023-01-18T22:19:59.745Z,5.40
2023-01-18T22:22:26.869Z,5.63
2023-01-18T22:24:54.063Z,6.00
2023-01-18T22:27:21.010Z,5.63
2023-01-18T22:29:48.615Z,5.50
2023-01-18T22:32:16.202Z,5.45
2023-01-18T22:34:43.200Z,5.75
2023-01-18T22:37:10.356Z,6.15
2023-01-18T22:39:37.379Z,5.28
2023-01-18T22:42:04.664Z,5.80
2023-01-18T22:44:32.713Z,5.13
2023-01-18T22:46:59.943Z,5.93
2023-01-18T22:49:27.024Z,5.75
2023-01-18T22:51:53.933Z,5.57
2023-01-18T22:54:22.751Z,5.65
2023-01-18T22:56:49.802Z,6.22
2023-01-18T22:59:16.899Z,6.60
2023-01-18T23:01:43.833Z,5.97
2023-01-18T23:04:11.204Z,6.03
2023-01-18T23:06:46.668Z,6.28
2023-01-18T23:09:17.703Z,6.07
2023-01-18T23:11:47.281Z,6.55
2023-01-18T23:14:33.047Z,5.97
2023-01-18T23:17:18.318Z,6.20
2023-01-18T23:19:46.343Z,6.88
2023-01-18T23:22:13.337Z,6.40
2023-01-18T23:24:40.299Z,6.80
2023-01-18T23:27:09.984Z,6.85
2023-01-18T23:29:39.006Z,6.90
2023-01-18T23:32:06.716Z,7.85
2023-01-18T23:34:33.721Z,7.15
2023-01-18T23:37:00.734Z,7.70
2023-01-18T23:39:46.257Z,7.10
2023-01-18T23:42:31.379Z,7.05
2023-01-18T23:45:16.689Z,7.68
2023-01-18T23:48:02.417Z,6.45
2023-01-18T23:50:48.623Z,6.38
2023-01-18T23:53:33.865Z,7.75
2023-01-18T23:56:00.866Z,7.10
2023-01-18T23:58:28.045Z,6.97
